sensor_id;sensor_type;location;lat;lon;timestamp;P1;durP1;ratioP1;P2;durP2;ratioP2
64982;SDS011;69426;28.138;-15.436;2023-05-28T00:00:55;11.85;;;3.70;;
64982;SDS011;69426;28.138;-15.436;2023-05-28T00:03:22;17.63;;;4.40;;
64982;SDS011;69426;28.138;-15.436;2023-05-28T00:05:49;13.55;;;3.95;;
64982;SDS011;69426;28.138;-15.436;2023-05-28T00:08:14;11.13;;;3.70;;
64982;SDS011;69426;28.138;-15.436;2023-05-28T00:10:41;16.30;;;4.15;;
64982;SDS011;69426;28.138;-15.436;2023-05-28T00:13:07;16.85;;;3.80;;
64982;SDS011;69426;28.138;-15.436;2023-05-28T00:15:32;21.27;;;4.50;;
64982;SDS011;69426;28.138;-15.436;2023-05-28T00:17:58;19.42;;;4.13;;
64982;SDS011;69426;28.138;-15.436;2023-05-28T00:20:24;23.63;;;3.90;;
64982;SDS011;69426;28.138;-15.436;2023-05-28T00:22:50;18.23;;;3.78;;
64982;SDS011;69426;28.138;-15.436;2023-05-28T00:25:16;8.57;;;3.20;;
64982;SDS011;69426;28.138;-15.436;2023-05-28T00:27:42;10.57;;;3.60;;
64982;SDS011;69426;28.138;-15.436;2023-05-28T00:30:08;19.42;;;5.60;;
64982;SDS011;69426;28.138;-15.436;2023-05-28T00:32:33;14.82;;;4.10;;
64982;SDS011;69426;28.138;-15.436;2023-05-28T00:34:59;19.35;;;5.00;;
64982;SDS011;69426;28.138;-15.436;2023-05-28T00:37:25;11.20;;;3.60;;
64982;SDS011;69426;28.138;-15.436;2023-05-28T00:39:51;18.15;;;4.20;;
64982;SDS011;69426;28.138;-15.436;2023-05-28T00:42:16;20.75;;;3.92;;
64982;SDS011;69426;28.138;-15.436;2023-05-28T00:44:42;22.25;;;4.15;;
64982;SDS011;69426;28.138;-15.436;2023-05-28T00:47:09;21.25;;;3.78;;
64982;SDS011;69426;28.138;-15.436;2023-05-28T00:49:35;14.52;;;3.35;;
64982;SDS011;69426;28.138;-15.436;2023-05-28T00:52:01;22.58;;;5.10;;
64982;SDS011;69426;28.138;-15.436;2023-05-28T00:54:29;14.75;;;4.35;;
64982;SDS011;69426;28.138;-15.436;2023-05-28T00:56:55;17.55;;;3.90;;
64982;SDS011;69426;28.138;-15.436;2023-05-28T00:59:23;21.33;;;4.53;;
64982;SDS011;69426;28.138;-15.436;2023-05-28T01:01:50;17.67;;;3.92;;
64982;SDS011;69426;28.138;-15.436;2023-05-28T01:04:16;11.38;;;4.18;;
64982;SDS011;69426;28.138;-15.436;2023-05-28T01:06:42;10.77;;;3.60;;
64982;SDS011;69426;28.138;-15.436;2023-05-28T01:09:09;8.82;;;3.60;;
64982;SDS011;69426;28.138;-15.436;2023-05-28T01:11:36;10.20;;;3.50;;
64982;SDS011;69426;28.138;-15.436;2023-05-28T01:14:04;9.75;;;3.30;;
64982;SDS011;69426;28.138;-15.436;2023-05-28T01:16:30;9.95;;;3.53;;
64982;SDS011;69426;28.138;-15.436;2023-05-28T01:18:57;7.93;;;3.03;;
64982;SDS011;69426;28.138;-15.436;2023-05-28T01:21:24;11.48;;;3.47;;
64982;SDS011;69426;28.138;-15.436;2023-05-28T01:23:53;11.15;;;3.10;;
64982;SDS011;69426;28.138;-15.436;2023-05-28T01:26:21;8.85;;;3.47;;
64982;SDS011;69426;28.138;-15.436;2023-05-28T01:28:47;9.45;;;3.22;;
64982;SDS011;69426;28.138;-15.436;2023-05-28T01:31:14;8.32;;;3.60;;
64982;SDS011;69426;28.138;-15.436;2023-05-28T01:33:41;6.70;;;3.22;;
64982;SDS011;69426;28.138;-15.436;2023-05-28T01:36:13;9.68;;;4.20;;
64982;SDS011;69426;28.138;-15.436;2023-05-28T01:38:42;16.75;;;4.65;;
64982;SDS011;69426;28.138;-15.436;2023-05-28T01:41:11;12.38;;;4.32;;
64982;SDS011;69426;28.138;-15.436;2023-05-28T01:43:39;13.82;;;4.40;;
64982;SDS011;69426;28.138;-15.436;2023-05-28T01:46:06;10.05;;;3.60;;
64982;SDS011;69426;28.138;-15.436;2023-05-28T01:48:31;12.70;;;4.80;;
64982;SDS011;69426;28.138;-15.436;2023-05-28T01:50:59;16.13;;;4.82;;
64982;SDS011;69426;28.138;-15.436;2023-05-28T01:53:24;12.63;;;3.33;;
64982;SDS011;69426;28.138;-15.436;2023-05-28T01:55:50;9.05;;;2.92;;
64982;SDS011;69426;28.138;-15.436;2023-05-28T01:58:16;7.38;;;3.10;;
64982;SDS011;69426;28.138;-15.436;2023-05-28T02:00:43;8.27;;;2.90;;
64982;SDS011;69426;28.138;-15.436;2023-05-28T02:03:15;11.27;;;3.42;;
64982;SDS011;69426;28.138;-15.436;2023-05-28T02:05:41;12.70;;;3.58;;
64982;SDS011;69426;28.138;-15.436;2023-05-28T02:08:07;13.98;;;3.63;;
64982;SDS011;69426;28.138;-15.436;2023-05-28T02:10:32;11.88;;;3.40;;
64982;SDS011;69426;28.138;-15.436;2023-05-28T02:12:58;9.50;;;3.55;;
64982;SDS011;69426;28.138;-15.436;2023-05-28T02:15:25;9.75;;;3.78;;
64982;SDS011;69426;28.138;-15.436;2023-05-28T02:17:51;14.05;;;3.67;;
64982;SDS011;69426;28.138;-15.436;2023-05-28T02:20:17;12.80;;;3.65;;
64982;SDS011;69426;28.138;-15.436;2023-05-28T02:22:42;10.85;;;3.50;;
64982;SDS011;69426;28.138;-15.436;2023-05-28T02:25:10;10.05;;;3.58;;
64982;SDS011;69426;28.138;-15.436;2023-05-28T02:27:35;10.82;;;3.55;;
64982;SDS011;69426;28.138;-15.436;2023-05-28T02:30:01;7.85;;;3.70;;
64982;SDS011;69426;28.138;-15.436;2023-05-28T02:32:27;14.50;;;3.40;;
64982;SDS011;69426;28.138;-15.436;2023-05-28T02:34:53;13.35;;;3.60;;
64982;SDS011;69426;28.138;-15.436;2023-05-28T02:37:20;9.23;;;3.50;;
64982;SDS011;69426;28.138;-15.436;2023-05-28T02:39:49;8.82;;;3.45;;
64982;SDS011;69426;28.138;-15.436;2023-05-28T02:42:16;9.68;;;3.10;;
64982;SDS011;69426;28.138;-15.436;2023-05-28T02:44:42;10.18;;;3.45;;
64982;SDS011;69426;28.138;-15.436;2023-05-28T02:47:07;8.20;;;3.13;;
64982;SDS011;69426;28.138;-15.436;2023-05-28T02:49:33;11.13;;;3.40;;
64982;SDS011;69426;28.138;-15.436;2023-05-28T02:51:59;8.50;;;3.58;;
64982;SDS011;69426;28.138;-15.436;2023-05-28T02:54:24;6.18;;;3.20;;
64982;SDS011;69426;28.138;-15.436;2023-05-28T02:56:51;10.98;;;3.38;;
64982;SDS011;69426;28.138;-15.436;2023-05-28T02:59:17;7.53;;;3.65;;
64982;SDS011;69426;28.138;-15.436;2023-05-28T03:01:42;9.10;;;3.40;;
64982;SDS011;69426;28.138;-15.436;2023-05-28T03:04:08;10.90;;;3.47;;
64982;SDS011;69426;28.138;-15.436;2023-05-28T03:06:34;7.13;;;3.15;;
64982;SDS011;69426;28.138;-15.436;2023-05-28T03:09:02;11.55;;;3.72;;
64982;SDS011;69426;28.138;-15.436;2023-05-28T03:11:27;9.93;;;3.33;;
64982;SDS011;69426;28.138;-15.436;2023-05-28T03:13:53;8.77;;;3.45;;
64982;SDS011;69426;28.138;-15.436;2023-05-28T03:16:19;6.65;;;3.28;;
64982;SDS011;69426;28.138;-15.436;2023-05-28T03:18:44;18.52;;;4.15;;
64982;SDS011;69426;28.138;-15.436;2023-05-28T03:21:10;8.95;;;3.30;;
64982;SDS011;69426;28.138;-15.436;2023-05-28T03:23:36;9.50;;;3.90;;
64982;SDS011;69426;28.138;-15.436;2023-05-28T03:26:01;8.88;;;3.20;;
64982;SDS011;69426;28.138;-15.436;2023-05-28T03:28:27;9.45;;;3.25;;
64982;SDS011;69426;28.138;-15.436;2023-05-28T03:30:55;11.32;;;4.10;;
64982;SDS011;69426;28.138;-15.436;2023-05-28T03:33:22;8.15;;;3.30;;
64982;SDS011;69426;28.138;-15.436;2023-05-28T03:35:48;10.68;;;3.30;;
64982;SDS011;69426;28.138;-15.436;2023-05-28T03:38:13;7.50;;;3.28;;
64982;SDS011;69426;28.138;-15.436;2023-05-28T03:40:39;9.68;;;3.60;;
64982;SDS011;69426;28.138;-15.436;2023-05-28T03:43:07;8.55;;;3.08;;
64982;SDS011;69426;28.138;-15.436;2023-05-28T03:45:33;6.20;;;2.97;;
64982;SDS011;69426;28.138;-15.436;2023-05-28T03:48:01;10.07;;;3.38;;
64982;SDS011;69426;28.138;-15.436;2023-05-28T03:50:27;9.10;;;3.50;;
64982;SDS011;69426;28.138;-15.436;2023-05-28T03:52:52;12.77;;;3.30;;
64982;SDS011;69426;28.138;-15.436;2023-05-28T03:55:18;10.63;;;3.22;;
64982;SDS011;69426;28.138;-15.436;2023-05-28T03:57:44;10.10;;;3.45;;
64982;SDS011;69426;28.138;-15.436;2023-05-28T04:00:10;9.73;;;3.30;;
64982;SDS011;69426;28.138;-15.436;2023-05-28T04:02:36;9.70;;;3.28;;
64982;SDS011;69426;28.138;-15.436;2023-05-28T04:05:02;8.35;;;3.38;;
64982;SDS011;69426;28.138;-15.436;2023-05-28T04:07:27;8.02;;;3.30;;
64982;SDS011;69426;28.138;-15.436;2023-05-28T04:09:53;8.73;;;3.20;;
64982;SDS011;69426;28.138;-15.436;2023-05-28T04:12:19;9.82;;;2.85;;
64982;SDS011;69426;28.138;-15.436;2023-05-28T04:14:44;8.50;;;3.17;;
64982;SDS011;69426;28.138;-15.436;2023-05-28T04:17:10;8.43;;;3.30;;
64982;SDS011;69426;28.138;-15.436;2023-05-28T04:19:38;10.60;;;3.20;;
64982;SDS011;69426;28.138;-15.436;2023-05-28T04:22:04;5.88;;;3.00;;
64982;SDS011;69426;28.138;-15.436;2023-05-28T04:24:30;10.40;;;3.28;;
64982;SDS011;69426;28.138;-15.436;2023-05-28T04:26:56;7.47;;;3.40;;
64982;SDS011;69426;28.138;-15.436;2023-05-28T04:29:25;7.75;;;2.95;;
64982;SDS011;69426;28.138;-15.436;2023-05-28T04:31:55;7.90;;;3.38;;
64982;SDS011;69426;28.138;-15.436;2023-05-28T04:34:22;8.98;;;3.30;;
64982;SDS011;69426;28.138;-15.436;2023-05-28T04:36:49;10.25;;;3.17;;
64982;SDS011;69426;28.138;-15.436;2023-05-28T04:39:16;7.68;;;3.15;;
64982;SDS011;69426;28.138;-15.436;2023-05-28T04:41:42;6.63;;;3.17;;
64982;SDS011;69426;28.138;-15.436;2023-05-28T04:44:08;6.03;;;2.72;;
64982;SDS011;69426;28.138;-15.436;2023-05-28T04:46:41;7.18;;;2.85;;
64982;SDS011;69426;28.138;-15.436;2023-05-28T04:49:09;5.15;;;2.55;;
64982;SDS011;69426;28.138;-15.436;2023-05-28T04:51:36;5.85;;;2.67;;
64982;SDS011;69426;28.138;-15.436;2023-05-28T04:54:03;7.95;;;2.60;;
64982;SDS011;69426;28.138;-15.436;2023-05-28T04:56:29;9.63;;;2.72;;
64982;SDS011;69426;28.138;-15.436;2023-05-28T04:58:54;5.68;;;2.55;;
64982;SDS011;69426;28.138;-15.436;2023-05-28T05:01:21;7.68;;;2.67;;
64982;SDS011;69426;28.138;-15.436;2023-05-28T05:03:47;6.00;;;2.58;;
64982;SDS011;69426;28.138;-15.436;2023-05-28T05:06:13;8.55;;;2.65;;
64982;SDS011;69426;28.138;-15.436;2023-05-28T05:08:39;7.72;;;2.45;;
64982;SDS011;69426;28.138;-15.436;2023-05-28T05:11:05;6.22;;;2.67;;
64982;SDS011;69426;28.138;-15.436;2023-05-28T05:13:31;7.63;;;2.38;;
64982;SDS011;69426;28.138;-15.436;2023-05-28T05:15:57;5.22;;;2.60;;
64982;SDS011;69426;28.138;-15.436;2023-05-28T05:18:23;8.68;;;2.60;;
64982;SDS011;69426;28.138;-15.436;2023-05-28T05:20:49;7.43;;;2.50;;
64982;SDS011;69426;28.138;-15.436;2023-05-28T05:23:14;7.35;;;2.70;;
64982;SDS011;69426;28.138;-15.436;2023-05-28T05:25:40;5.70;;;2.40;;
64982;SDS011;69426;28.138;-15.436;2023-05-28T05:28:08;7.88;;;2.60;;
64982;SDS011;69426;28.138;-15.436;2023-05-28T05:30:35;7.78;;;3.03;;
64982;SDS011;69426;28.138;-15.436;2023-05-28T05:33:00;8.05;;;2.50;;
64982;SDS011;69426;28.138;-15.436;2023-05-28T05:35:26;9.18;;;2.58;;
64982;SDS011;69426;28.138;-15.436;2023-05-28T05:37:52;7.28;;;2.95;;
64982;SDS011;69426;28.138;-15.436;2023-05-28T05:40:17;9.23;;;2.72;;
64982;SDS011;69426;28.138;-15.436;2023-05-28T05:42:43;5.18;;;2.55;;
64982;SDS011;69426;28.138;-15.436;2023-05-28T05:45:09;7.65;;;3.10;;
64982;SDS011;69426;28.138;-15.436;2023-05-28T05:47:35;8.48;;;2.90;;
64982;SDS011;69426;28.138;-15.436;2023-05-28T05:50:03;6.75;;;2.97;;
64982;SDS011;69426;28.138;-15.436;2023-05-28T05:52:29;7.25;;;2.63;;
64982;SDS011;69426;28.138;-15.436;2023-05-28T05:54:55;8.10;;;2.42;;
64982;SDS011;69426;28.138;-15.436;2023-05-28T05:57:21;6.22;;;2.83;;
64982;SDS011;69426;28.138;-15.436;2023-05-28T05:59:47;6.68;;;2.33;;
64982;SDS011;69426;28.138;-15.436;2023-05-28T06:02:13;7.30;;;2.50;;
64982;SDS011;69426;28.138;-15.436;2023-05-28T06:04:38;5.32;;;2.50;;
64982;SDS011;69426;28.138;-15.436;2023-05-28T06:07:04;7.15;;;2.60;;
64982;SDS011;69426;28.138;-15.436;2023-05-28T06:09:32;5.82;;;2.50;;
64982;SDS011;69426;28.138;-15.436;2023-05-28T06:11:58;5.88;;;2.45;;
64982;SDS011;69426;28.138;-15.436;2023-05-28T06:14:26;9.18;;;2.60;;
64982;SDS011;69426;28.138;-15.436;2023-05-28T06:16:52;11.38;;;2.63;;
64982;SDS011;69426;28.138;-15.436;2023-05-28T06:19:18;6.43;;;2.80;;
64982;SDS011;69426;28.138;-15.436;2023-05-28T06:21:44;9.75;;;2.95;;
64982;SDS011;69426;28.138;-15.436;2023-05-28T06:24:10;9.10;;;3.50;;
64982;SDS011;69426;28.138;-15.436;2023-05-28T06:26:36;6.43;;;2.75;;
64982;SDS011;69426;28.138;-15.436;2023-05-28T06:29:02;11.32;;;3.08;;
64982;SDS011;69426;28.138;-15.436;2023-05-28T06:31:27;9.15;;;3.28;;
64982;SDS011;69426;28.138;-15.436;2023-05-28T06:33:53;9.60;;;3.55;;
64982;SDS011;69426;28.138;-15.436;2023-05-28T06:36:19;6.75;;;3.22;;
64982;SDS011;69426;28.138;-15.436;2023-05-28T06:38:44;11.18;;;3.38;;
64982;SDS011;69426;28.138;-15.436;2023-05-28T06:41:10;12.68;;;3.03;;
64982;SDS011;69426;28.138;-15.436;2023-05-28T06:43:37;7.10;;;2.90;;
64982;SDS011;69426;28.138;-15.436;2023-05-28T06:46:03;7.65;;;3.20;;
64982;SDS011;69426;28.138;-15.436;2023-05-28T06:48:29;8.32;;;3.45;;
64982;SDS011;69426;28.138;-15.436;2023-05-28T06:50:55;18.92;;;8.05;;
64982;SDS011;69426;28.138;-15.436;2023-05-28T06:53:22;14.63;;;4.65;;
64982;SDS011;69426;28.138;-15.436;2023-05-28T06:55:47;11.40;;;3.40;;
64982;SDS011;69426;28.138;-15.436;2023-05-28T06:58:13;17.75;;;3.67;;
64982;SDS011;69426;28.138;-15.436;2023-05-28T07:00:39;19.63;;;3.70;;
64982;SDS011;69426;28.138;-15.436;2023-05-28T07:03:04;10.10;;;3.22;;
64982;SDS011;69426;28.138;-15.436;2023-05-28T07:05:30;12.73;;;3.28;;
64982;SDS011;69426;28.138;-15.436;2023-05-28T07:07:56;10.27;;;3.40;;
64982;SDS011;69426;28.138;-15.436;2023-05-28T07:10:22;13.13;;;3.38;;
64982;SDS011;69426;28.138;-15.436;2023-05-28T07:12:48;10.52;;;3.63;;
64982;SDS011;69426;28.138;-15.436;2023-05-28T07:15:13;10.60;;;4.13;;
64982;SDS011;69426;28.138;-15.436;2023-05-28T07:17:40;9.35;;;4.07;;
64982;SDS011;69426;28.138;-15.436;2023-05-28T07:20:06;12.90;;;4.43;;
64982;SDS011;69426;28.138;-15.436;2023-05-28T07:22:33;15.90;;;4.40;;
64982;SDS011;69426;28.138;-15.436;2023-05-28T07:24:59;11.50;;;3.65;;
64982;SDS011;69426;28.138;-15.436;2023-05-28T07:27:25;12.45;;;4.97;;
64982;SDS011;69426;28.138;-15.436;2023-05-28T07:29:51;14.52;;;4.80;;
64982;SDS011;69426;28.138;-15.436;2023-05-28T07:32:16;13.35;;;3.53;;
64982;SDS011;69426;28.138;-15.436;2023-05-28T07:34:42;14.50;;;3.45;;
64982;SDS011;69426;28.138;-15.436;2023-05-28T07:37:07;15.00;;;3.45;;
64982;SDS011;69426;28.138;-15.436;2023-05-28T07:39:33;17.00;;;3.58;;
64982;SDS011;69426;28.138;-15.436;2023-05-28T07:41:58;13.88;;;3.38;;
64982;SDS011;69426;28.138;-15.436;2023-05-28T07:44:24;9.25;;;2.80;;
64982;SDS011;69426;28.138;-15.436;2023-05-28T07:46:50;12.55;;;2.88;;
64982;SDS011;69426;28.138;-15.436;2023-05-28T07:49:16;14.82;;;3.28;;
64982;SDS011;69426;28.138;-15.436;2023-05-28T07:51:42;12.80;;;3.25;;
64982;SDS011;69426;28.138;-15.436;2023-05-28T07:54:07;15.80;;;3.47;;
64982;SDS011;69426;28.138;-15.436;2023-05-28T07:56:33;10.75;;;3.42;;
64982;SDS011;69426;28.138;-15.436;2023-05-28T07:58:59;11.32;;;3.20;;
64982;SDS011;69426;28.138;-15.436;2023-05-28T08:01:24;9.77;;;3.35;;
64982;SDS011;69426;28.138;-15.436;2023-05-28T08:03:50;15.90;;;3.53;;
64982;SDS011;69426;28.138;-15.436;2023-05-28T08:06:19;17.08;;;3.20;;
64982;SDS011;69426;28.138;-15.436;2023-05-28T08:08:45;19.95;;;3.42;;
64982;SDS011;69426;28.138;-15.436;2023-05-28T08:11:11;22.83;;;3.58;;
64982;SDS011;69426;28.138;-15.436;2023-05-28T08:13:39;21.90;;;4.00;;
64982;SDS011;69426;28.138;-15.436;2023-05-28T08:16:05;18.40;;;3.92;;
64982;SDS011;69426;28.138;-15.436;2023-05-28T08:18:31;16.50;;;4.63;;
64982;SDS011;69426;28.138;-15.436;2023-05-28T08:20:56;13.20;;;3.92;;
64982;SDS011;69426;28.138;-15.436;2023-05-28T08:23:22;8.13;;;2.90;;
64982;SDS011;69426;28.138;-15.436;2023-05-28T08:25:48;9.00;;;2.85;;
64982;SDS011;69426;28.138;-15.436;2023-05-28T08:28:16;8.43;;;3.22;;
64982;SDS011;69426;28.138;-15.436;2023-05-28T08:30:42;7.05;;;3.20;;
64982;SDS011;69426;28.138;-15.436;2023-05-28T08:33:08;9.43;;;3.40;;
64982;SDS011;69426;28.138;-15.436;2023-05-28T08:35:33;10.82;;;3.40;;
64982;SDS011;69426;28.138;-15.436;2023-05-28T08:37:59;11.25;;;3.40;;
64982;SDS011;69426;28.138;-15.436;2023-05-28T08:40:25;8.88;;;2.95;;
64982;SDS011;69426;28.138;-15.436;2023-05-28T08:42:52;9.63;;;3.28;;
64982;SDS011;69426;28.138;-15.436;2023-05-28T08:45:18;9.25;;;3.38;;
64982;SDS011;69426;28.138;-15.436;2023-05-28T08:47:43;8.35;;;3.17;;
64982;SDS011;69426;28.138;-15.436;2023-05-28T08:50:10;9.65;;;3.65;;
64982;SDS011;69426;28.138;-15.436;2023-05-28T08:52:40;7.43;;;3.17;;
64982;SDS011;69426;28.138;-15.436;2023-05-28T08:55:06;8.60;;;3.63;;
64982;SDS011;69426;28.138;-15.436;2023-05-28T08:57:32;13.07;;;3.30;;
64982;SDS011;69426;28.138;-15.436;2023-05-28T08:59:59;8.65;;;3.72;;
64982;SDS011;69426;28.138;-15.436;2023-05-28T09:02:25;12.50;;;3.70;;
64982;SDS011;69426;28.138;-15.436;2023-05-28T09:04:51;8.35;;;3.53;;
64982;SDS011;69426;28.138;-15.436;2023-05-28T09:07:17;9.93;;;3.40;;
64982;SDS011;69426;28.138;-15.436;2023-05-28T09:09:43;9.88;;;3.50;;
64982;SDS011;69426;28.138;-15.436;2023-05-28T09:12:12;10.50;;;3.45;;
64982;SDS011;69426;28.138;-15.436;2023-05-28T09:14:38;9.68;;;3.13;;
64982;SDS011;69426;28.138;-15.436;2023-05-28T09:17:06;13.25;;;4.10;;
64982;SDS011;69426;28.138;-15.436;2023-05-28T09:19:34;12.07;;;4.15;;
64982;SDS011;69426;28.138;-15.436;2023-05-28T09:22:00;8.95;;;3.30;;
64982;SDS011;69426;28.138;-15.436;2023-05-28T09:24:28;7.22;;;3.22;;
64982;SDS011;69426;28.138;-15.436;2023-05-28T09:26:55;11.32;;;4.40;;
64982;SDS011;69426;28.138;-15.436;2023-05-28T09:29:22;6.30;;;2.72;;
64982;SDS011;69426;28.138;-15.436;2023-05-28T09:32:01;10.07;;;3.40;;
64982;SDS011;69426;28.138;-15.436;2023-05-28T09:36:54;9.07;;;2.92;;
64982;SDS011;69426;28.138;-15.436;2023-05-28T09:39:27;7.25;;;2.80;;
64982;SDS011;69426;28.138;-15.436;2023-05-28T09:42:00;12.35;;;3.50;;
64982;SDS011;69426;28.138;-15.436;2023-05-28T09:44:31;9.70;;;3.47;;
64982;SDS011;69426;28.138;-15.436;2023-05-28T09:46:58;5.40;;;2.70;;
64982;SDS011;69426;28.138;-15.436;2023-05-28T09:49:27;10.40;;;3.67;;
64982;SDS011;69426;28.138;-15.436;2023-05-28T09:51:52;7.18;;;2.90;;
64982;SDS011;69426;28.138;-15.436;2023-05-28T09:54:21;8.57;;;3.00;;
64982;SDS011;69426;28.138;-15.436;2023-05-28T09:56:51;8.98;;;2.88;;
64982;SDS011;69426;28.138;-15.436;2023-05-28T09:59:18;10.23;;;3.50;;
64982;SDS011;69426;28.138;-15.436;2023-05-28T10:01:56;10.48;;;3.08;;
64982;SDS011;69426;28.138;-15.436;2023-05-28T10:04:23;10.50;;;3.47;;
64982;SDS011;69426;28.138;-15.436;2023-05-28T10:07:00;8.32;;;2.92;;
64982;SDS011;69426;28.138;-15.436;2023-05-28T10:09:29;7.60;;;3.20;;
64982;SDS011;69426;28.138;-15.436;2023-05-28T10:14:38;10.23;;;3.75;;
64982;SDS011;69426;28.138;-15.436;2023-05-28T10:17:05;9.32;;;2.70;;
64982;SDS011;69426;28.138;-15.436;2023-05-28T10:19:34;11.05;;;4.05;;
64982;SDS011;69426;28.138;-15.436;2023-05-28T10:22:00;11.60;;;2.88;;
64982;SDS011;69426;28.138;-15.436;2023-05-28T10:24:26;9.23;;;2.85;;
64982;SDS011;69426;28.138;-15.436;2023-05-28T10:26:55;7.95;;;2.70;;
64982;SDS011;69426;28.138;-15.436;2023-05-28T10:29:20;8.55;;;2.80;;
64982;SDS011;69426;28.138;-15.436;2023-05-28T10:32:19;9.73;;;2.90;;
64982;SDS011;69426;28.138;-15.436;2023-05-28T10:34:43;6.35;;;2.88;;
64982;SDS011;69426;28.138;-15.436;2023-05-28T10:37:09;7.05;;;3.00;;
64982;SDS011;69426;28.138;-15.436;2023-05-28T10:39:42;8.25;;;2.72;;
64982;SDS011;69426;28.138;-15.436;2023-05-28T10:42:14;8.75;;;2.85;;
64982;SDS011;69426;28.138;-15.436;2023-05-28T10:44:51;9.43;;;3.50;;
64982;SDS011;69426;28.138;-15.436;2023-05-28T10:50:27;7.95;;;3.38;;
64982;SDS011;69426;28.138;-15.436;2023-05-28T10:53:06;7.88;;;2.97;;
64982;SDS011;69426;28.138;-15.436;2023-05-28T10:58:31;7.70;;;2.85;;
64982;SDS011;69426;28.138;-15.436;2023-05-28T11:01:04;8.45;;;3.15;;
64982;SDS011;69426;28.138;-15.436;2023-05-28T11:06:07;6.28;;;3.22;;
64982;SDS011;69426;28.138;-15.436;2023-05-28T11:08:47;6.95;;;3.58;;
64982;SDS011;69426;28.138;-15.436;2023-05-28T11:11:14;10.88;;;3.67;;
64982;SDS011;69426;28.138;-15.436;2023-05-28T11:13:47;12.00;;;3.65;;
64982;SDS011;69426;28.138;-15.436;2023-05-28T11:16:14;8.52;;;3.00;;
64982;SDS011;69426;28.138;-15.436;2023-05-28T11:21:27;12.38;;;4.07;;
64982;SDS011;69426;28.138;-15.436;2023-05-28T11:24:02;11.35;;;3.53;;
64982;SDS011;69426;28.138;-15.436;2023-05-28T11:26:29;11.73;;;3.75;;
64982;SDS011;69426;28.138;-15.436;2023-05-28T11:28:56;8.07;;;3.20;;
64982;SDS011;69426;28.138;-15.436;2023-05-28T11:31:22;8.77;;;2.80;;
64982;SDS011;69426;28.138;-15.436;2023-05-28T11:33:48;11.85;;;3.70;;
64982;SDS011;69426;28.138;-15.436;2023-05-28T11:36:14;7.20;;;3.20;;
64982;SDS011;69426;28.138;-15.436;2023-05-28T11:38:40;8.68;;;3.00;;
64982;SDS011;69426;28.138;-15.436;2023-05-28T11:41:05;9.27;;;2.47;;
64982;SDS011;69426;28.138;-15.436;2023-05-28T11:43:31;11.13;;;3.65;;
64982;SDS011;69426;28.138;-15.436;2023-05-28T11:45:57;11.18;;;3.45;;
64982;SDS011;69426;28.138;-15.436;2023-05-28T11:48:25;8.85;;;2.50;;
64982;SDS011;69426;28.138;-15.436;2023-05-28T11:51:00;6.85;;;2.30;;
64982;SDS011;69426;28.138;-15.436;2023-05-28T11:53:39;9.90;;;3.08;;
64982;SDS011;69426;28.138;-15.436;2023-05-28T11:56:09;7.60;;;2.83;;
64982;SDS011;69426;28.138;-15.436;2023-05-28T11:58:35;7.32;;;2.90;;
64982;SDS011;69426;28.138;-15.436;2023-05-28T12:01:07;6.80;;;2.55;;
64982;SDS011;69426;28.138;-15.436;2023-05-28T12:03:33;6.97;;;2.53;;
64982;SDS011;69426;28.138;-15.436;2023-05-28T12:05:59;9.25;;;3.03;;
64982;SDS011;69426;28.138;-15.436;2023-05-28T12:08:28;7.93;;;2.47;;
64982;SDS011;69426;28.138;-15.436;2023-05-28T12:11:00;7.90;;;2.50;;
64982;SDS011;69426;28.138;-15.436;2023-05-28T12:13:34;7.70;;;2.88;;
64982;SDS011;69426;28.138;-15.436;2023-05-28T12:16:09;7.13;;;2.42;;
64982;SDS011;69426;28.138;-15.436;2023-05-28T12:18:42;8.80;;;2.97;;
64982;SDS011;69426;28.138;-15.436;2023-05-28T12:21:11;9.50;;;3.08;;
64982;SDS011;69426;28.138;-15.436;2023-05-28T12:23:38;12.40;;;3.05;;
64982;SDS011;69426;28.138;-15.436;2023-05-28T12:26:07;8.48;;;2.88;;
64982;SDS011;69426;28.138;-15.436;2023-05-28T12:28:34;8.07;;;2.45;;
64982;SDS011;69426;28.138;-15.436;2023-05-28T12:31:04;7.32;;;2.40;;
64982;SDS011;69426;28.138;-15.436;2023-05-28T12:33:30;7.50;;;3.15;;
64982;SDS011;69426;28.138;-15.436;2023-05-28T12:35:56;11.23;;;2.92;;
64982;SDS011;69426;28.138;-15.436;2023-05-28T12:38:25;8.98;;;2.65;;
64982;SDS011;69426;28.138;-15.436;2023-05-28T12:40:51;9.02;;;2.20;;
64982;SDS011;69426;28.138;-15.436;2023-05-28T12:43:17;6.05;;;2.60;;
64982;SDS011;69426;28.138;-15.436;2023-05-28T12:45:43;7.95;;;3.00;;
64982;SDS011;69426;28.138;-15.436;2023-05-28T12:48:10;7.63;;;2.53;;
64982;SDS011;69426;28.138;-15.436;2023-05-28T12:50:35;7.15;;;2.42;;
64982;SDS011;69426;28.138;-15.436;2023-05-28T12:53:01;9.40;;;2.38;;
64982;SDS011;69426;28.138;-15.436;2023-05-28T12:55:30;6.68;;;2.38;;
64982;SDS011;69426;28.138;-15.436;2023-05-28T12:57:56;9.20;;;2.95;;
64982;SDS011;69426;28.138;-15.436;2023-05-28T13:00:22;10.18;;;3.40;;
64982;SDS011;69426;28.138;-15.436;2023-05-28T13:02:49;9.63;;;3.35;;
64982;SDS011;69426;28.138;-15.436;2023-05-28T13:05:15;7.38;;;2.70;;
64982;SDS011;69426;28.138;-15.436;2023-05-28T13:07:41;6.93;;;2.28;;
64982;SDS011;69426;28.138;-15.436;2023-05-28T13:10:08;11.25;;;3.00;;
64982;SDS011;69426;28.138;-15.436;2023-05-28T13:12:35;7.75;;;2.78;;
64982;SDS011;69426;28.138;-15.436;2023-05-28T13:15:03;7.78;;;2.47;;
64982;SDS011;69426;28.138;-15.436;2023-05-28T13:17:33;10.65;;;2.97;;
64982;SDS011;69426;28.138;-15.436;2023-05-28T13:19:59;6.47;;;2.40;;
64982;SDS011;69426;28.138;-15.436;2023-05-28T13:22:25;9.82;;;3.03;;
64982;SDS011;69426;28.138;-15.436;2023-05-28T13:24:51;15.57;;;3.67;;
64982;SDS011;69426;28.138;-15.436;2023-05-28T13:27:16;11.93;;;3.50;;
64982;SDS011;69426;28.138;-15.436;2023-05-28T13:29:42;9.80;;;3.05;;
64982;SDS011;69426;28.138;-15.436;2023-05-28T13:32:08;8.27;;;3.33;;
64982;SDS011;69426;28.138;-15.436;2023-05-28T13:34:34;7.43;;;2.40;;
64982;SDS011;69426;28.138;-15.436;2023-05-28T13:37:00;9.45;;;2.60;;
64982;SDS011;69426;28.138;-15.436;2023-05-28T13:39:25;7.90;;;2.72;;
64982;SDS011;69426;28.138;-15.436;2023-05-28T13:41:51;7.85;;;3.03;;
64982;SDS011;69426;28.138;-15.436;2023-05-28T13:44:17;12.07;;;4.35;;
64982;SDS011;69426;28.138;-15.436;2023-05-28T13:46:43;10.88;;;2.50;;
64982;SDS011;69426;28.138;-15.436;2023-05-28T13:49:09;7.32;;;3.30;;
64982;SDS011;69426;28.138;-15.436;2023-05-28T13:51:34;8.20;;;3.15;;
64982;SDS011;69426;28.138;-15.436;2023-05-28T13:54:00;7.93;;;2.50;;
64982;SDS011;69426;28.138;-15.436;2023-05-28T13:56:26;11.68;;;3.45;;
64982;SDS011;69426;28.138;-15.436;2023-05-28T13:58:52;6.40;;;3.10;;
64982;SDS011;69426;28.138;-15.436;2023-05-28T14:01:17;8.38;;;2.45;;
64982;SDS011;69426;28.138;-15.436;2023-05-28T14:03:43;8.90;;;2.70;;
64982;SDS011;69426;28.138;-15.436;2023-05-28T14:06:10;8.25;;;3.00;;
64982;SDS011;69426;28.138;-15.436;2023-05-28T14:08:36;6.28;;;2.20;;
64982;SDS011;69426;28.138;-15.436;2023-05-28T14:11:02;7.75;;;2.70;;
64982;SDS011;69426;28.138;-15.436;2023-05-28T14:13:28;7.47;;;2.15;;
64982;SDS011;69426;28.138;-15.436;2023-05-28T14:15:57;5.95;;;2.08;;
64982;SDS011;69426;28.138;-15.436;2023-05-28T14:18:23;7.03;;;2.20;;
64982;SDS011;69426;28.138;-15.436;2023-05-28T14:20:49;12.23;;;2.63;;
64982;SDS011;69426;28.138;-15.436;2023-05-28T14:23:14;6.65;;;2.38;;
64982;SDS011;69426;28.138;-15.436;2023-05-28T14:25:40;8.77;;;3.10;;
64982;SDS011;69426;28.138;-15.436;2023-05-28T14:28:05;6.45;;;2.55;;
64982;SDS011;69426;28.138;-15.436;2023-05-28T14:30:31;9.13;;;3.00;;